Time;durP1;ratioP1;P1;durP2;ratioP2;P2;SDS_P1;SDS_P2;PMS_P1;PMS_P2;Temp;Humidity;BMP_temperature;BMP_pressure;BME280_temperature;BME280_humidity;BME280_pressure;Samples;Min_cycle;Max_cycle;Signal;HPM_P1;HPM_P2
2021/11/18 00:00:18;;;;;;;13.10;10.70;;;7.80;99.90;;;;;;5069908;28;20483;-88
2021/11/18 00:02:45;;;;;;;13.23;10.97;;;7.80;99.90;;;;;;5056163;28;20434;-87
2021/11/18 00:05:13;;;;;;;12.50;11.20;;;7.80;99.90;;;;;;5051368;28;20832;-88
2021/11/18 00:07:43;;;;;;;15.20;11.33;;;7.90;99.90;;;;;;5053789;28;20456;-87
2021/11/18 00:10:13;;;;;;;12.60;10.97;;;7.90;99.90;;;;;;5037735;28;20495;-87
2021/11/18 00:12:41;;;;;;;12.00;10.80;;;7.90;99.90;;;;;;5066024;28;20451;-87
2021/11/18 00:15:09;;;;;;;12.67;11.30;;;7.90;99.90;;;;;;5073363;28;20475;-87
2021/11/18 00:17:36;;;;;;;14.50;11.60;;;7.90;99.90;;;;;;5069971;28;20444;-87
2021/11/18 00:20:04;;;;;;;15.20;13.60;;;7.90;99.90;;;;;;5049934;28;20477;-86
2021/11/18 00:22:31;;;;;;;13.17;11.87;;;7.90;99.90;;;;;;5039876;28;20446;-86
2021/11/18 00:24:58;;;;;;;12.97;11.50;;;7.90;99.90;;;;;;5045722;28;20452;-87
2021/11/18 00:27:27;;;;;;;14.80;12.53;;;7.90;99.90;;;;;;5049420;28;20452;-88
2021/11/18 00:29:54;;;;;;;16.17;13.33;;;7.80;99.90;;;;;;5058561;28;20428;-88
2021/11/18 00:32:21;;;;;;;14.30;12.80;;;7.80;99.90;;;;;;5050802;28;20452;-88
2021/11/18 00:34:48;;;;;;;13.40;12.10;;;7.80;99.90;;;;;;5047556;28;20537;-88
2021/11/18 00:37:15;;;;;;;14.83;13.10;;;7.80;99.90;;;;;;5050508;28;20483;-88
2021/11/18 00:39:41;;;;;;;14.20;12.70;;;7.80;99.90;;;;;;5036449;28;20477;-88
2021/11/18 00:42:08;;;;;;;13.07;11.73;;;7.80;99.90;;;;;;5047761;28;20448;-88
2021/11/18 00:44:36;;;;;;;15.60;13.47;;;7.80;99.90;;;;;;5050267;28;20448;-87
2021/11/18 00:47:03;;;;;;;14.33;12.83;;;7.80;99.90;;;;;;5039324;28;20468;-88
2021/11/18 00:49:30;;;;;;;14.13;12.70;;;7.80;99.90;;;;;;5054757;28;20472;-87
2021/11/18 00:51:57;;;;;;;14.47;12.97;;;7.80;99.90;;;;;;5053934;28;20461;-86
2021/11/18 00:54:24;;;;;;;15.70;13.60;;;7.80;99.90;;;;;;5049610;28;20461;-86
2021/11/18 00:56:50;;;;;;;15.43;13.30;;;7.80;99.90;;;;;;5035408;28;20473;-86
2021/11/18 00:59:17;;;;;;;14.37;12.90;;;7.70;99.90;;;;;;5046785;28;20445;-88
2021/11/18 01:01:47;;;;;;;14.27;12.87;;;7.70;99.90;;;;;;5034445;28;20438;-87
2021/11/18 01:04:16;;;;;;;13.83;12.23;;;7.80;99.90;;;;;;5034986;28;20455;-87
2021/11/18 01:06:44;;;;;;;14.90;12.23;;;7.70;99.90;;;;;;5052876;28;20488;-87
2021/11/18 01:09:10;;;;;;;14.83;13.40;;;7.80;99.90;;;;;;5046908;28;20746;-87
2021/11/18 01:11:37;;;;;;;14.60;13.17;;;7.80;99.90;;;;;;5052790;28;20444;-86
2021/11/18 01:14:07;;;;;;;16.90;13.40;;;7.80;99.90;;;;;;5040067;28;20463;-87
2021/11/18 01:16:36;;;;;;;14.20;11.83;;;7.80;99.90;;;;;;5053640;28;20618;-87
2021/11/18 01:19:06;;;;;;;15.80;14.10;;;7.80;99.90;;;;;;5051203;28;20448;-86
2021/11/18 01:21:34;;;;;;;16.10;14.50;;;7.80;99.90;;;;;;5037000;28;20480;-86
2021/11/18 01:24:01;;;;;;;16.73;14.23;;;7.70;99.90;;;;;;5071355;28;20532;-86
2021/11/18 01:26:28;;;;;;;14.60;13.10;;;7.70;99.90;;;;;;5040100;28;20473;-86
2021/11/18 01:28:55;;;;;;;15.63;14.17;;;7.70;99.90;;;;;;5049824;28;20449;-86
2021/11/18 01:31:22;;;;;;;19.17;15.67;;;7.70;99.90;;;;;;5014280;28;20835;-86
2021/11/18 01:33:49;;;;;;;18.23;14.73;;;7.70;99.90;;;;;;5034540;28;20441;-86
2021/11/18 01:36:17;;;;;;;18.10;15.77;;;7.70;99.90;;;;;;5062073;28;20475;-86
2021/11/18 01:38:45;;;;;;;16.43;14.73;;;7.70;99.90;;;;;;5037412;28;20442;-86
2021/11/18 01:41:14;;;;;;;15.30;13.70;;;7.70;99.90;;;;;;5058979;28;20491;-86
2021/11/18 01:43:44;;;;;;;15.80;13.73;;;7.70;99.90;;;;;;5070854;28;20456;-86
2021/11/18 01:46:14;;;;;;;17.93;14.57;;;7.70;99.90;;;;;;5062157;28;20469;-86
2021/11/18 01:48:41;;;;;;;17.20;15.60;;;7.70;99.90;;;;;;5058331;28;20444;-87
2021/11/18 01:51:08;;;;;;;18.30;16.40;;;7.70;99.90;;;;;;5057732;28;20456;-87
2021/11/18 01:53:39;;;;;;;15.60;14.00;;;7.70;99.90;;;;;;5041512;28;20452;-87
2021/11/18 01:56:08;;;;;;;16.37;14.13;;;7.70;99.90;;;;;;5066164;28;20472;-87
2021/11/18 01:58:35;;;;;;;19.00;16.40;;;7.70;99.90;;;;;;5074350;28;20444;-86
2021/11/18 02:01:02;;;;;;;20.07;15.87;;;7.70;99.90;;;;;;5053594;28;20469;-87
2021/11/18 02:03:29;;;;;;;16.47;14.90;;;7.70;99.90;;;;;;5038291;28;20849;-87
2021/11/18 02:06:03;;;;;;;21.13;15.10;;;7.60;99.90;;;;;;5058631;28;20543;-87
2021/11/18 02:08:30;;;;;;;16.73;14.93;;;7.60;99.90;;;;;;5069890;28;20459;-87
2021/11/18 02:11:03;;;;;;;16.87;14.87;;;7.60;99.90;;;;;;5058519;28;20820;-87
2021/11/18 02:13:31;;;;;;;18.87;16.10;;;7.70;99.90;;;;;;5058042;28;20452;-87
2021/11/18 02:16:00;;;;;;;17.50;15.57;;;7.70;99.90;;;;;;5058527;28;20491;-87
2021/11/18 02:18:29;;;;;;;22.63;15.10;;;7.60;99.90;;;;;;5063485;28;20467;-86
2021/11/18 02:20:59;;;;;;;16.77;14.83;;;7.70;99.90;;;;;;5052087;28;20477;-86
2021/11/18 02:23:29;;;;;;;17.93;15.77;;;7.70;99.90;;;;;;5045126;28;20456;-87
2021/11/18 02:25:57;;;;;;;16.63;14.93;;;7.70;99.90;;;;;;5053650;28;20496;-87
2021/11/18 02:28:26;;;;;;;17.40;14.63;;;7.70;99.90;;;;;;5057953;28;20461;-87
2021/11/18 02:30:55;;;;;;;21.80;16.40;;;7.70;99.90;;;;;;5040791;28;20445;-87
2021/11/18 02:33:23;;;;;;;17.73;15.50;;;7.70;99.90;;;;;;5056318;28;20426;-87
2021/11/18 02:35:50;;;;;;;16.97;15.20;;;7.70;99.90;;;;;;5051917;28;20895;-87
2021/11/18 02:38:19;;;;;;;17.87;14.80;;;7.70;99.90;;;;;;5056338;28;20454;-87
2021/11/18 02:40:46;;;;;;;17.23;15.07;;;7.70;99.90;;;;;;5057050;28;20855;-87
2021/11/18 02:43:17;;;;;;;21.53;16.57;;;7.70;99.90;;;;;;5049614;28;20456;-87
2021/11/18 02:45:46;;;;;;;21.13;17.40;;;7.70;99.90;;;;;;5044786;28;20534;-86
2021/11/18 02:48:13;;;;;;;19.17;17.07;;;7.80;99.90;;;;;;5065826;28;20463;-87
2021/11/18 02:50:45;;;;;;;19.73;16.37;;;7.80;99.90;;;;;;5068855;28;20440;-87
2021/11/18 02:53:14;;;;;;;17.73;15.43;;;7.80;99.90;;;;;;5050605;28;20447;-88
2021/11/18 02:55:44;;;;;;;18.70;16.50;;;7.80;99.90;;;;;;5046529;28;20989;-87
2021/11/18 02:58:12;;;;;;;19.30;17.20;;;7.80;99.90;;;;;;5049853;28;20447;-87
2021/11/18 03:00:46;;;;;;;18.57;16.30;;;7.80;99.90;;;;;;5078123;28;20482;-86
2021/11/18 03:03:13;;;;;;;19.73;16.83;;;7.80;99.90;;;;;;5062725;28;20528;-86
2021/11/18 03:05:40;;;;;;;18.13;16.23;;;7.80;99.90;;;;;;5059579;28;20483;-86
2021/11/18 03:08:07;;;;;;;17.70;15.90;;;7.80;99.90;;;;;;5047574;28;20449;-86
2021/11/18 03:10:33;;;;;;;17.80;16.07;;;7.80;99.90;;;;;;5048143;28;20441;-86
2021/11/18 03:13:01;;;;;;;20.07;16.27;;;7.80;99.90;;;;;;5038111;28;20449;-86
2021/11/18 03:15:28;;;;;;;17.03;15.10;;;7.80;99.90;;;;;;5045900;28;20481;-87
2021/11/18 03:17:56;;;;;;;16.97;14.57;;;7.80;99.90;;;;;;5036462;28;20964;-86
2021/11/18 03:20:24;;;;;;;16.17;14.47;;;7.80;99.90;;;;;;5036018;28;20485;-86
2021/11/18 03:22:52;;;;;;;18.73;14.80;;;7.80;99.90;;;;;;5048776;28;20448;-86
2021/11/18 03:25:23;;;;;;;18.37;14.57;;;7.80;99.90;;;;;;5037666;28;20469;-86
2021/11/18 03:27:51;;;;;;;16.47;14.57;;;7.80;99.90;;;;;;5036705;28;20453;-86
2021/11/18 03:30:24;;;;;;;16.60;14.87;;;7.80;99.90;;;;;;5057512;28;20429;-85
2021/11/18 03:32:53;;;;;;;17.20;15.43;;;7.80;99.90;;;;;;5057803;28;20440;-86
2021/11/18 03:35:20;;;;;;;18.53;16.17;;;7.80;99.90;;;;;;5054682;28;20697;-86
2021/11/18 03:37:47;;;;;;;20.70;15.80;;;7.90;99.90;;;;;;5048048;28;20461;-86
2021/11/18 03:40:15;;;;;;;20.50;17.17;;;7.90;99.90;;;;;;5040530;28;20445;-86
2021/11/18 03:42:42;;;;;;;20.10;16.37;;;7.90;99.90;;;;;;5048022;28;20816;-86
2021/11/18 03:45:10;;;;;;;20.40;17.47;;;7.90;99.90;;;;;;5044599;28;20441;-86
2021/11/18 03:47:38;;;;;;;39.37;27.70;;;7.90;99.90;;;;;;5042312;28;20941;-86
2021/11/18 03:50:05;;;;;;;21.67;15.73;;;7.90;99.90;;;;;;5043846;28;20444;-86
2021/11/18 03:52:32;;;;;;;20.17;16.43;;;7.90;99.90;;;;;;5055522;28;20447;-86
2021/11/18 03:54:59;;;;;;;19.00;15.93;;;7.90;99.90;;;;;;5065290;28;20436;-86
2021/11/18 03:57:26;;;;;;;22.17;18.90;;;7.90;99.90;;;;;;5057135;28;20454;-86
2021/11/18 03:59:53;;;;;;;19.03;16.93;;;7.90;99.90;;;;;;5072137;28;20439;-86
2021/11/18 04:02:20;;;;;;;19.13;16.10;;;7.90;99.90;;;;;;5047506;28;20535;-86
2021/11/18 04:04:50;;;;;;;20.23;17.07;;;7.90;99.90;;;;;;5035788;28;20985;-88
2021/11/18 04:07:17;;;;;;;19.40;16.90;;;7.90;99.90;;;;;;5035229;28;21020;-87
2021/11/18 04:09:45;;;;;;;21.40;18.10;;;7.80;99.90;;;;;;5044532;28;20974;-87
2021/11/18 04:12:15;;;;;;;18.80;16.80;;;7.90;99.90;;;;;;5054165;28;20440;-87
2021/11/18 04:14:43;;;;;;;18.70;16.70;;;7.90;99.90;;;;;;5037847;28;20445;-88
2021/11/18 04:17:11;;;;;;;20.40;16.70;;;7.80;99.90;;;;;;5063003;22;20502;-89
2021/11/18 04:19:38;;;;;;;20.97;17.87;;;7.80;99.90;;;;;;5056611;28;20440;-89
2021/11/18 04:22:07;;;;;;;22.80;18.30;;;7.90;99.90;;;;;;5073588;28;20526;-87
2021/11/18 04:24:35;;;;;;;20.50;16.40;;;7.90;99.90;;;;;;5058968;28;20454;-88
2021/11/18 04:27:03;;;;;;;18.23;16.30;;;7.90;99.90;;;;;;5054180;28;20441;-87
2021/11/18 04:29:30;;;;;;;18.97;16.87;;;7.90;99.90;;;;;;5049025;28;20452;-88
2021/11/18 04:31:58;;;;;;;18.83;16.83;;;7.90;99.90;;;;;;5038209;28;20438;-88
2021/11/18 04:34:25;;;;;;;20.57;17.20;;;7.90;99.90;;;;;;5036409;28;20449;-88
2021/11/18 04:36:51;;;;;;;21.03;18.27;;;7.90;99.90;;;;;;5028791;28;20851;-88
2021/11/18 04:39:20;;;;;;;17.67;15.57;;;8.00;99.90;;;;;;5046326;28;20441;-87
2021/11/18 04:41:48;;;;;;;20.07;17.70;;;8.00;99.90;;;;;;5057131;28;20481;-87
2021/11/18 04:44:15;;;;;;;25.73;19.63;;;8.00;99.90;;;;;;5041635;28;20441;-88
2021/11/18 04:46:42;;;;;;;22.80;17.60;;;7.90;99.90;;;;;;5040749;28;20465;-88
2021/11/18 04:49:08;;;;;;;19.60;17.50;;;7.90;99.90;;;;;;5042621;28;20456;-86
2021/11/18 04:51:35;;;;;;;20.40;17.30;;;7.90;99.90;;;;;;5056259;28;20456;-86
2021/11/18 04:54:03;;;;;;;26.00;21.17;;;7.90;99.90;;;;;;5049114;28;20449;-89
2021/11/18 04:56:32;;;;;;;19.40;16.87;;;8.00;99.90;;;;;;5038210;28;20469;-88
2021/11/18 04:58:59;;;;;;;21.17;18.30;;;8.00;99.90;;;;;;5037360;28;20445;-89
2021/11/18 05:01:27;;;;;;;23.10;18.50;;;8.00;99.90;;;;;;5037389;28;20542;-88
2021/11/18 05:03:54;;;;;;;19.17;17.17;;;8.00;99.90;;;;;;5038384;28;20441;-88
2021/11/18 05:06:21;;;;;;;20.00;16.77;;;8.00;99.90;;;;;;5038570;28;20476;-90
2021/11/18 05:08:48;;;;;;;19.70;17.70;;;8.00;99.90;;;;;;5037713;28;20445;-88
2021/11/18 05:11:15;;;;;;;20.90;18.10;;;8.00;99.90;;;;;;5045898;28;20421;-89
2021/11/18 05:13:44;;;;;;;19.77;17.77;;;8.00;99.90;;;;;;5044381;28;20446;-88
2021/11/18 05:16:14;;;;;;;22.67;19.20;;;8.00;99.90;;;;;;5042490;28;20488;-89
2021/11/18 05:18:41;;;;;;;20.50;18.27;;;8.00;99.90;;;;;;5041159;28;20468;-89
2021/11/18 05:21:12;;;;;;;23.00;20.53;;;8.00;99.90;;;;;;5042638;28;20480;-89
2021/11/18 05:23:39;;;;;;;25.73;18.77;;;8.00;99.90;;;;;;5044237;28;20457;-89
2021/11/18 05:26:06;;;;;;;21.83;17.77;;;8.10;99.90;;;;;;5037071;28;20468;-89
2021/11/18 05:28:34;;;;;;;21.13;18.87;;;8.10;99.90;;;;;;5035188;28;20455;-92
2021/11/18 05:31:06;;;;;;;23.87;18.47;;;8.10;99.90;;;;;;5035592;28;20461;-90
2021/11/18 05:33:33;;;;;;;22.83;18.70;;;8.00;99.90;;;;;;5034779;28;20495;-89
2021/11/18 05:36:00;;;;;;;21.73;18.20;;;8.00;99.90;;;;;;5034106;28;20445;-90
2021/11/18 05:38:27;;;;;;;20.93;17.47;;;8.00;99.90;;;;;;5037254;28;20451;-89
2021/11/18 05:40:54;;;;;;;25.57;20.00;;;8.00;99.90;;;;;;5044843;28;20466;-89
2021/11/18 05:43:22;;;;;;;22.53;18.90;;;8.00;99.90;;;;;;5033408;28;20885;-90
2021/11/18 05:45:49;;;;;;;25.00;20.77;;;8.00;99.90;;;;;;5033089;28;20456;-89
2021/11/18 05:48:19;;;;;;;22.57;19.90;;;8.00;99.90;;;;;;5032998;28;20954;-89
2021/11/18 05:50:50;;;;;;;22.53;18.77;;;8.00;99.90;;;;;;5045922;28;20433;-90
2021/11/18 05:53:17;;;;;;;23.23;19.77;;;8.00;99.90;;;;;;5035266;28;20840;-89
2021/11/18 05:55:44;;;;;;;26.13;20.03;;;8.00;99.90;;;;;;5035396;28;21121;-90
2021/11/18 05:58:12;;;;;;;25.03;21.17;;;8.00;99.90;;;;;;5034629;28;20449;-90
2021/11/18 06:00:40;;;;;;;28.00;20.10;;;8.00;99.90;;;;;;5036156;28;20524;-89
2021/11/18 06:03:07;;;;;;;24.60;19.77;;;7.90;99.90;;;;;;5033298;28;20481;-90
2021/11/18 06:05:35;;;;;;;29.53;20.70;;;7.80;99.90;;;;;;5033321;28;20453;-90
2021/11/18 06:08:02;;;;;;;23.57;19.87;;;7.90;99.90;;;;;;5014080;28;20469;-90
2021/11/18 06:10:31;;;;;;;29.13;20.43;;;7.90;99.90;;;;;;5013327;28;20449;-90
2021/11/18 06:12:58;;;;;;;24.67;20.67;;;8.00;99.90;;;;;;5032334;28;20452;-90
2021/11/18 06:15:25;;;;;;;27.03;22.10;;;8.00;99.90;;;;;;5033917;28;20453;-90
2021/11/18 06:17:52;;;;;;;25.60;20.83;;;8.00;99.90;;;;;;5040708;28;20989;-89
2021/11/18 06:20:20;;;;;;;26.20;20.40;;;8.00;99.90;;;;;;5035617;28;20444;-90
2021/11/18 06:22:49;;;;;;;26.63;22.20;;;8.00;99.90;;;;;;5046245;28;20808;-90
2021/11/18 06:25:19;;;;;;;24.87;19.67;;;8.10;99.90;;;;;;5059614;28;20437;-89
2021/11/18 06:27:47;;;;;;;29.37;20.40;;;8.10;99.90;;;;;;5045663;28;20445;-89
2021/11/18 06:30:17;;;;;;;25.20;19.27;;;8.10;99.90;;;;;;5036300;28;20445;-88
2021/11/18 06:32:44;;;;;;;24.23;19.00;;;8.10;99.90;;;;;;5036188;28;20457;-89
2021/11/18 06:35:13;;;;;;;27.83;20.60;;;8.00;99.90;;;;;;5037631;28;20442;-89
2021/11/18 06:37:39;;;;;;;27.57;21.10;;;8.00;99.90;;;;;;5055267;28;20457;-91
2021/11/18 06:40:11;;;;;;;31.30;20.43;;;8.00;99.90;;;;;;5042884;28;20452;-87
2021/11/18 06:42:38;;;;;;;27.70;22.13;;;8.00;99.90;;;;;;5036387;28;20484;-87
2021/11/18 06:45:06;;;;;;;27.60;21.03;;;8.00;99.90;;;;;;5037426;28;20461;-86
2021/11/18 06:47:33;;;;;;;29.07;21.63;;;8.00;99.90;;;;;;5038297;28;20473;-87
2021/11/18 06:49:59;;;;;;;26.67;21.60;;;8.00;99.90;;;;;;5036062;28;20445;-87
2021/11/18 06:52:27;;;;;;;24.10;20.90;;;8.00;99.90;;;;;;5034774;28;20453;-87
2021/11/18 06:54:54;;;;;;;27.60;20.57;;;8.00;99.90;;;;;;5036842;28;20453;-87
2021/11/18 06:57:22;;;;;;;34.10;20.33;;;8.10;99.90;;;;;;5056698;28;20477;-88
2021/11/18 06:59:50;;;;;;;26.67;19.83;;;8.10;99.90;;;;;;5055196;28;20509;-89
2021/11/18 07:02:18;;;;;;;31.93;20.37;;;8.10;99.90;;;;;;5048546;28;20509;-87
2021/11/18 07:04:46;;;;;;;27.00;19.17;;;8.20;99.90;;;;;;5038383;28;20472;-88
2021/11/18 07:07:13;;;;;;;24.23;19.90;;;8.10;99.90;;;;;;5043392;28;20468;-91
2021/11/18 07:09:42;;;;;;;24.73;19.87;;;8.10;99.90;;;;;;5038091;28;20544;-90
2021/11/18 07:12:11;;;;;;;25.00;19.20;;;8.00;99.90;;;;;;5044150;28;20455;-87
2021/11/18 07:14:41;;;;;;;23.53;19.00;;;8.00;99.90;;;;;;5036915;28;20453;-87
2021/11/18 07:17:08;;;;;;;22.93;19.20;;;8.10;99.90;;;;;;5037029;28;20477;-87
2021/11/18 07:19:35;;;;;;;28.73;18.73;;;8.20;99.90;;;;;;5038722;28;20449;-87
2021/11/18 07:22:02;;;;;;;27.93;19.70;;;8.30;99.90;;;;;;5033890;28;20997;-87
2021/11/18 07:24:30;;;;;;;26.53;19.20;;;8.30;99.90;;;;;;5033815;28;20446;-87
2021/11/18 07:26:57;;;;;;;27.83;19.27;;;8.40;99.90;;;;;;5034598;28;20477;-87
2021/11/18 07:29:24;;;;;;;21.90;18.77;;;8.40;99.90;;;;;;5033682;28;20824;-87
2021/11/18 07:31:53;;;;;;;26.43;20.77;;;8.40;99.90;;;;;;5032746;28;20441;-86
2021/11/18 07:34:20;;;;;;;25.53;19.97;;;8.30;99.90;;;;;;5016683;28;20457;-87
2021/11/18 07:36:48;;;;;;;23.53;19.13;;;8.20;99.90;;;;;;5033682;28;20996;-87
2021/11/18 07:39:18;;;;;;;29.50;19.83;;;8.20;99.90;;;;;;5042567;28;20541;-88
2021/11/18 07:41:45;;;;;;;22.37;17.70;;;8.20;99.90;;;;;;5036245;28;20479;-87
2021/11/18 07:44:12;;;;;;;31.40;19.03;;;8.20;99.90;;;;;;5035355;28;20449;-88
2021/11/18 07:46:39;;;;;;;23.73;19.47;;;8.20;99.90;;;;;;5034180;28;21023;-88
2021/11/18 07:49:07;;;;;;;22.87;18.50;;;8.20;99.90;;;;;;5034024;28;20457;-87
2021/11/18 07:51:36;;;;;;;25.73;20.00;;;8.20;99.90;;;;;;5043611;28;20488;-87
2021/11/18 07:54:03;;;;;;;25.87;18.67;;;8.30;99.90;;;;;;5041018;28;20536;-87
2021/11/18 07:56:30;;;;;;;30.63;19.17;;;8.30;99.90;;;;;;5037099;28;20465;-87
2021/11/18 07:58:57;;;;;;;23.97;19.50;;;8.30;99.90;;;;;;5047763;28;20523;-87
2021/11/18 08:01:24;;;;;;;26.13;18.77;;;8.30;99.90;;;;;;5040402;28;20456;-87
2021/11/18 08:03:51;;;;;;;22.30;17.70;;;8.20;99.90;;;;;;5034776;28;20481;-87
2021/11/18 08:06:22;;;;;;;23.10;18.47;;;8.20;99.90;;;;;;5039965;28;20469;-87
2021/11/18 08:08:51;;;;;;;22.10;17.90;;;8.30;99.90;;;;;;5038619;28;20491;-87
2021/11/18 08:11:20;;;;;;;22.27;16.33;;;8.40;99.90;;;;;;5035626;28;20471;-87
2021/11/18 08:13:47;;;;;;;24.27;17.70;;;8.60;99.90;;;;;;5036311;28;20825;-87
2021/11/18 08:16:14;;;;;;;26.50;17.60;;;8.60;99.90;;;;;;5044905;28;20464;-88
2021/11/18 08:18:41;;;;;;;22.30;19.37;;;8.70;99.90;;;;;;5041690;28;20445;-88
2021/11/18 08:21:08;;;;;;;22.47;17.30;;;8.70;99.90;;;;;;5033639;28;20498;-87
2021/11/18 08:23:36;;;;;;;21.93;17.60;;;8.70;99.90;;;;;;5032084;28;20481;-88
2021/11/18 08:26:06;;;;;;;23.63;17.60;;;8.70;99.90;;;;;;5033839;28;20469;-88
2021/11/18 08:28:33;;;;;;;22.80;18.17;;;8.70;99.90;;;;;;5034068;28;20445;-87
2021/11/18 08:31:01;;;;;;;24.90;18.70;;;8.70;99.90;;;;;;5033708;28;20453;-87
2021/11/18 08:33:28;;;;;;;25.10;19.47;;;8.70;99.90;;;;;;5035160;28;20452;-88
2021/11/18 08:35:55;;;;;;;25.13;19.33;;;8.70;99.90;;;;;;5034428;28;20472;-87
2021/11/18 08:38:22;;;;;;;23.30;18.57;;;8.70;99.90;;;;;;5033726;28;20464;-87
2021/11/18 08:40:52;;;;;;;26.63;18.73;;;8.70;99.90;;;;;;5051698;28;20459;-80
2021/11/18 08:43:20;;;;;;;23.80;19.40;;;8.80;99.90;;;;;;5048124;28;20477;-83
2021/11/18 08:45:47;;;;;;;24.00;19.20;;;8.90;99.90;;;;;;5045640;28;20465;-81
2021/11/18 08:48:15;;;;;;;29.27;19.10;;;8.90;99.90;;;;;;5023870;28;20456;-81
2021/11/18 08:50:45;;;;;;;24.23;18.43;;;8.90;99.90;;;;;;5017305;28;21028;-82
2021/11/18 08:53:13;;;;;;;25.43;18.30;;;8.80;99.90;;;;;;5034918;28;20445;-80
2021/11/18 08:55:41;;;;;;;22.47;19.03;;;8.70;99.90;;;;;;5036021;28;21045;-86
2021/11/18 08:58:12;;;;;;;27.23;18.73;;;8.70;99.90;;;;;;5034567;28;20461;-89
2021/11/18 09:00:43;;;;;;;25.77;17.73;;;8.90;99.90;;;;;;5042878;28;20444;-87
2021/11/18 09:03:10;;;;;;;19.60;16.20;;;9.00;99.90;;;;;;5037659;28;20480;-86
2021/11/18 09:05:37;;;;;;;21.60;16.33;;;9.20;99.90;;;;;;5036452;28;20456;-86
2021/11/18 09:08:05;;;;;;;24.03;17.90;;;9.20;99.90;;;;;;5038009;28;20446;-86
2021/11/18 09:10:33;;;;;;;23.10;17.73;;;9.30;99.90;;;;;;5053625;28;20439;-86
2021/11/18 09:13:00;;;;;;;23.53;15.97;;;9.40;99.90;;;;;;5046324;28;20673;-86
2021/11/18 09:15:29;;;;;;;25.07;19.37;;;9.50;99.90;;;;;;5036575;28;20453;-86
2021/11/18 09:17:58;;;;;;;26.10;17.80;;;9.40;99.90;;;;;;5036419;28;20458;-86
2021/11/18 09:20:26;;;;;;;20.43;17.03;;;9.50;99.90;;;;;;5039391;28;20449;-86
2021/11/18 09:22:57;;;;;;;29.33;18.43;;;9.40;99.90;;;;;;5043118;28;20479;-86
2021/11/18 09:25:26;;;;;;;24.60;18.60;;;9.20;99.90;;;;;;5036927;28;20449;-86
2021/11/18 09:27:54;;;;;;;24.87;17.47;;;9.40;99.90;;;;;;5035575;28;20441;-86
2021/11/18 09:30:24;;;;;;;23.90;17.90;;;9.50;99.90;;;;;;5042239;28;20582;-86
2021/11/18 09:32:53;;;;;;;23.23;17.20;;;9.40;99.90;;;;;;5051659;28;20455;-86
2021/11/18 09:35:23;;;;;;;29.60;18.87;;;9.40;99.90;;;;;;5038756;28;20441;-86
2021/11/18 09:37:50;;;;;;;22.77;17.43;;;9.40;99.90;;;;;;5035113;28;20812;-87
2021/11/18 09:40:20;;;;;;;28.33;17.40;;;9.30;99.90;;;;;;5033964;28;20512;-87
2021/11/18 09:43:06;;;;;;;25.43;16.77;;;9.30;99.90;;;;;;5032489;28;20520;-87
2021/11/18 09:45:39;;;;;;;22.53;16.77;;;9.30;99.90;;;;;;5024940;28;20437;-86
2021/11/18 09:48:34;;;;;;;20.50;15.33;;;9.30;99.90;;;;;;5034189;28;20452;-87
2021/11/18 09:51:33;;;;;;;24.60;17.23;;;9.40;99.90;;;;;;5048021;28;20453;-86
2021/11/18 09:54:25;;;;;;;25.50;15.90;;;9.50;99.90;;;;;;5039627;28;20445;-86
2021/11/18 09:57:09;;;;;;;21.43;14.83;;;9.60;99.90;;;;;;5042334;28;20888;-86
2021/11/18 09:59:44;;;;;;;25.70;17.43;;;9.70;99.90;;;;;;5036921;28;20456;-87
2021/11/18 10:02:21;;;;;;;26.27;17.80;;;9.90;99.90;;;;;;5036783;28;20485;-87
2021/11/18 10:04:55;;;;;;;23.13;17.33;;;10.00;99.90;;;;;;5017816;28;20854;-86
2021/11/18 10:07:27;;;;;;;24.70;18.20;;;10.20;99.90;;;;;;5029228;28;20480;-87
2021/11/18 10:10:12;;;;;;;24.67;17.30;;;10.20;99.90;;;;;;5038528;28;20454;-86
2021/11/18 10:12:59;;;;;;;28.63;18.77;;;10.30;99.90;;;;;;5036096;28;20954;-86
2021/11/18 10:15:29;;;;;;;28.50;17.70;;;10.40;99.90;;;;;;5036431;28;20456;-87
2021/11/18 10:18:01;;;;;;;20.27;16.10;;;10.60;99.90;;;;;;5086450;22;20479;-86
2021/11/18 10:20:32;;;;;;;22.57;16.60;;;10.60;99.90;;;;;;5079308;28;20463;-86
2021/11/18 10:23:05;;;;;;;23.77;16.60;;;10.70;99.90;;;;;;5080040;28;20464;-88
2021/11/18 10:25:36;;;;;;;26.63;18.13;;;11.10;99.90;;;;;;5081091;28;20436;-86
2021/11/18 10:28:28;;;;;;;24.23;17.03;;;11.60;99.90;;;;;;5059618;28;20511;-88
2021/11/18 10:31:10;;;;;;;23.30;17.20;;;12.10;99.90;;;;;;5056667;28;20452;-91
2021/11/18 10:33:45;;;;;;;22.77;15.80;;;12.80;99.90;;;;;;5049321;28;20476;-90
2021/11/18 10:36:17;;;;;;;24.93;15.40;;;13.30;99.90;;;;;;5051627;28;20478;-90
2021/11/18 10:38:56;;;;;;;23.77;15.97;;;13.80;99.90;;;;;;5059934;28;20428;-89
2021/11/18 10:41:28;;;;;;;15.70;13.33;;;15.10;99.90;;;;;;5055154;28;20449;-88
2021/11/18 10:44:15;;;;;;;16.17;13.57;;;17.20;98.60;;;;;;5055786;28;20450;-86
2021/11/18 10:46:49;;;;;;;16.87;13.63;;;18.30;94.20;;;;;;5056376;28;20485;-87
2021/11/18 10:49:34;;;;;;;20.63;14.37;;;18.70;93.10;;;;;;5048726;28;20449;-87
2021/11/18 10:52:06;;;;;;;16.20;13.83;;;19.00;90.80;;;;;;5051981;28;20461;-88
2021/11/18 10:54:42;;;;;;;15.10;13.10;;;19.10;90.40;;;;;;5050947;28;20479;-87
2021/11/18 10:57:15;;;;;;;16.50;12.63;;;18.60;90.00;;;;;;5038818;28;20468;-86
2021/11/18 10:59:44;;;;;;;16.03;12.33;;;17.80;90.40;;;;;;5036529;28;20452;-86
2021/11/18 11:02:19;;;;;;;15.73;12.07;;;17.40;91.10;;;;;;5038656;28;20450;-87
2021/11/18 11:04:49;;;;;;;14.77;12.23;;;16.90;91.40;;;;;;5043125;28;20441;-86
2021/11/18 11:07:32;;;;;;;14.83;12.07;;;16.30;92.70;;;;;;5055154;28;20536;-78
2021/11/18 11:09:59;;;;;;;12.50;11.20;;;17.00;92.30;;;;;;5040344;28;20453;-77
2021/11/18 11:12:29;;;;;;;17.73;12.00;;;17.00;91.50;;;;;;5039512;28;20454;-78
2021/11/18 11:15:27;;;;;;;15.37;12.30;;;16.90;91.90;;;;;;5040932;28;20438;-77
2021/11/18 11:18:04;;;;;;;17.10;12.80;;;17.00;92.20;;;;;;5024525;28;20478;-78
2021/11/18 11:20:39;;;;;;;19.27;13.47;;;16.70;91.90;;;;;;5046016;28;20465;-78
2021/11/18 11:23:14;;;;;;;14.90;11.57;;;16.60;92.20;;;;;;5045840;28;20452;-78
2021/11/18 11:26:04;;;;;;;14.93;11.60;;;16.20;92.30;;;;;;5042969;28;20444;-79
2021/11/18 11:28:46;;;;;;;17.20;12.17;;;15.70;92.90;;;;;;5037211;28;20541;-88
2021/11/18 11:31:26;;;;;;;13.90;12.43;;;15.30;93.70;;;;;;5038088;28;20533;-86
2021/11/18 11:34:02;;;;;;;14.83;11.70;;;14.90;94.20;;;;;;5035604;28;20475;-86
2021/11/18 11:36:34;;;;;;;13.40;10.80;;;14.60;94.80;;;;;;5035922;28;20472;-86
2021/11/18 11:39:16;;;;;;;14.47;12.00;;;14.30;95.60;;;;;;5035332;28;20482;-86
2021/11/18 11:42:23;;;;;;;20.60;16.00;;;13.90;95.90;;;;;;5034948;28;20466;-86
2021/11/18 11:45:00;;;;;;;15.80;12.27;;;13.70;96.70;;;;;;5036016;28;20436;-86
2021/11/18 11:47:49;;;;;;;17.57;13.47;;;13.80;97.00;;;;;;5039325;28;20469;-87
2021/11/18 11:50:21;;;;;;;15.60;12.43;;;13.60;97.60;;;;;;5046676;28;20520;-86
2021/11/18 11:53:01;;;;;;;19.23;12.73;;;13.30;97.90;;;;;;5046486;28;20469;-86
2021/11/18 11:55:54;;;;;;;15.93;13.67;;;13.20;98.70;;;;;;5044830;28;20801;-87
2021/11/18 11:58:26;;;;;;;16.40;13.17;;;13.10;99.10;;;;;;5049823;28;20449;-88
2021/11/18 12:01:11;;;;;;;19.80;13.20;;;12.60;99.80;;;;;;5041024;28;20452;-91
2021/11/18 12:03:46;;;;;;;20.00;14.90;;;12.40;99.90;;;;;;5043923;28;20530;-88
2021/11/18 12:06:20;;;;;;;17.00;13.07;;;12.30;99.90;;;;;;5039857;28;20474;-88
2021/11/18 12:08:52;;;;;;;18.60;14.03;;;11.90;99.90;;;;;;5038210;28;20442;-89
2021/11/18 12:11:35;;;;;;;19.47;15.80;;;11.70;99.90;;;;;;5041839;28;20448;-87
2021/11/18 12:14:15;;;;;;;23.20;15.07;;;11.50;99.90;;;;;;5047704;28;20659;-92
2021/11/18 12:16:56;;;;;;;17.93;14.13;;;11.40;99.90;;;;;;5053906;28;20489;-91
2021/11/18 12:19:45;;;;;;;17.43;13.63;;;11.30;99.90;;;;;;5050148;28;20537;-90
2021/11/18 12:26:07;;;;;;;20.53;13.97;;;11.20;99.90;;;;;;5044926;28;20429;-91
2021/11/18 12:32:02;;;;;;;18.43;14.27;;;11.20;99.90;;;;;;4999669;28;20530;-86
2021/11/18 12:35:10;;;;;;;22.00;14.43;;;11.30;99.90;;;;;;5036664;28;20497;-90
2021/11/18 12:38:00;;;;;;;15.80;14.07;;;11.30;99.90;;;;;;5036036;28;20461;-89
2021/11/18 12:40:44;;;;;;;18.80;13.40;;;11.30;99.90;;;;;;5041339;28;20543;-89
2021/11/18 12:43:43;;;;;;;16.30;12.27;;;11.20;99.90;;;;;;5034652;28;20448;-87
2021/11/18 12:46:21;;;;;;;24.50;13.13;;;11.20;99.90;;;;;;5021015;28;20561;-87
2021/11/18 12:49:15;;;;;;;15.53;13.07;;;11.20;99.90;;;;;;5023496;28;20480;-89
2021/11/18 12:52:20;;;;;;;14.20;12.60;;;11.20;99.90;;;;;;5035695;28;20437;-88
2021/11/18 12:55:16;;;;;;;15.90;12.83;;;11.20;99.90;;;;;;5035134;28;20985;-88
2021/11/18 12:57:45;;;;;;;17.03;12.90;;;11.20;99.90;;;;;;5035383;28;20461;-89
2021/11/18 13:00:42;;;;;;;16.67;12.33;;;11.30;99.90;;;;;;5015054;28;20455;-90